Milesovka, Czech Republic
Current Conditions -  °F | °C
As of 8:00 PM on Thursday 30 Oct 2014 (Local Time) from LKPR Reporting Station
Broken Clouds Broken Clouds  
Wind Chill: 45°   Ceiling: 2000
Heat Index: 45°   Visibility: 6mi
Dew Point: 41°   Wind: 2mph
Humidity: 87%   Direction: 220°SW
Pressure: 30.3"   Gusts: NA
Location:  50.55°N, 13.93°E
Report Text: LKPR 301800Z 22002KT 9999 SCT017 BKN020 07/05 Q1026 NOSIG
Loading
Personal Weather Stations






























Interactive Weather Map
Tropical Storm Tracking
New forecast layout! Learn more

10-Day Weather Forecast

Advertisements
Track Severe Weather on mobile